sensor_id;sensor_type;location;lat;lon;timestamp;P1;durP1;ratioP1;P2;durP2;ratioP2
55314;SDS011;41619;42.816;23.226;2023-04-03T00:01:27;15.02;;;7.80;;
55314;SDS011;41619;42.816;23.226;2023-04-03T00:03:52;15.90;;;8.57;;
55314;SDS011;41619;42.816;23.226;2023-04-03T00:06:18;20.92;;;8.75;;
55314;SDS011;41619;42.816;23.226;2023-04-03T00:08:43;16.67;;;8.13;;
55314;SDS011;41619;42.816;23.226;2023-04-03T00:11:09;14.45;;;6.97;;
55314;SDS011;41619;42.816;23.226;2023-04-03T00:13:35;19.98;;;7.75;;
55314;SDS011;41619;42.816;23.226;2023-04-03T00:16:00;16.63;;;7.20;;
55314;SDS011;41619;42.816;23.226;2023-04-03T00:18:26;12.95;;;6.63;;
55314;SDS011;41619;42.816;23.226;2023-04-03T00:20:51;16.15;;;7.25;;
55314;SDS011;41619;42.816;23.226;2023-04-03T00:23:16;14.98;;;7.28;;
55314;SDS011;41619;42.816;23.226;2023-04-03T00:25:42;13.57;;;7.70;;
55314;SDS011;41619;42.816;23.226;2023-04-03T00:28:08;19.23;;;7.22;;
55314;SDS011;41619;42.816;23.226;2023-04-03T00:30:34;15.00;;;7.05;;
55314;SDS011;41619;42.816;23.226;2023-04-03T00:32:59;14.85;;;7.50;;
55314;SDS011;41619;42.816;23.226;2023-04-03T00:35:25;18.40;;;7.78;;
55314;SDS011;41619;42.816;23.226;2023-04-03T00:37:52;19.50;;;8.50;;
55314;SDS011;41619;42.816;23.226;2023-04-03T00:40:18;17.05;;;8.52;;
55314;SDS011;41619;42.816;23.226;2023-04-03T00:42:45;18.77;;;8.95;;
55314;SDS011;41619;42.816;23.226;2023-04-03T00:47:57;23.55;;;10.25;;
55314;SDS011;41619;42.816;23.226;2023-04-03T00:50:25;27.60;;;11.18;;
55314;SDS011;41619;42.816;23.226;2023-04-03T00:52:52;22.65;;;10.13;;
55314;SDS011;41619;42.816;23.226;2023-04-03T00:55:18;21.23;;;10.27;;
55314;SDS011;41619;42.816;23.226;2023-04-03T00:57:44;18.90;;;9.23;;
55314;SDS011;41619;42.816;23.226;2023-04-03T01:00:12;19.33;;;10.75;;
55314;SDS011;41619;42.816;23.226;2023-04-03T01:02:41;16.88;;;7.82;;
55314;SDS011;41619;42.816;23.226;2023-04-03T01:05:07;12.50;;;6.35;;
55314;SDS011;41619;42.816;23.226;2023-04-03T01:07:33;12.63;;;6.15;;
55314;SDS011;41619;42.816;23.226;2023-04-03T01:10:02;9.38;;;5.35;;
55314;SDS011;41619;42.816;23.226;2023-04-03T01:12:35;12.10;;;5.57;;
55314;SDS011;41619;42.816;23.226;2023-04-03T01:22:49;10.50;;;5.20;;
55314;SDS011;41619;42.816;23.226;2023-04-03T01:25:47;8.93;;;5.43;;
55314;SDS011;41619;42.816;23.226;2023-04-03T01:28:18;10.57;;;5.80;;
55314;SDS011;41619;42.816;23.226;2023-04-03T01:33:33;16.02;;;6.60;;
55314;SDS011;41619;42.816;23.226;2023-04-03T01:36:00;11.05;;;5.38;;
55314;SDS011;41619;42.816;23.226;2023-04-03T01:38:25;10.68;;;5.78;;
55314;SDS011;41619;42.816;23.226;2023-04-03T01:40:51;12.50;;;5.38;;
55314;SDS011;41619;42.816;23.226;2023-04-03T01:43:16;12.02;;;5.25;;
55314;SDS011;41619;42.816;23.226;2023-04-03T01:45:41;12.82;;;5.28;;
55314;SDS011;41619;42.816;23.226;2023-04-03T01:48:07;13.52;;;5.05;;
55314;SDS011;41619;42.816;23.226;2023-04-03T01:50:32;12.07;;;5.05;;
55314;SDS011;41619;42.816;23.226;2023-04-03T01:52:58;10.93;;;5.25;;
55314;SDS011;41619;42.816;23.226;2023-04-03T01:55:23;13.35;;;5.50;;
55314;SDS011;41619;42.816;23.226;2023-04-03T01:57:49;10.48;;;5.30;;
55314;SDS011;41619;42.816;23.226;2023-04-03T02:00:14;9.27;;;4.97;;
55314;SDS011;41619;42.816;23.226;2023-04-03T02:02:40;12.45;;;5.53;;
55314;SDS011;41619;42.816;23.226;2023-04-03T02:05:06;9.68;;;5.65;;
55314;SDS011;41619;42.816;23.226;2023-04-03T02:07:31;12.65;;;5.68;;
55314;SDS011;41619;42.816;23.226;2023-04-03T02:09:57;10.35;;;5.80;;
55314;SDS011;41619;42.816;23.226;2023-04-03T02:12:22;12.45;;;6.20;;
55314;SDS011;41619;42.816;23.226;2023-04-03T02:14:48;11.88;;;5.68;;
55314;SDS011;41619;42.816;23.226;2023-04-03T02:17:13;9.93;;;5.35;;
55314;SDS011;41619;42.816;23.226;2023-04-03T02:19:38;11.15;;;5.35;;
55314;SDS011;41619;42.816;23.226;2023-04-03T02:22:05;14.45;;;5.85;;
55314;SDS011;41619;42.816;23.226;2023-04-03T02:24:30;13.75;;;5.88;;
55314;SDS011;41619;42.816;23.226;2023-04-03T02:26:56;11.15;;;5.80;;
55314;SDS011;41619;42.816;23.226;2023-04-03T02:29:22;12.60;;;5.38;;
55314;SDS011;41619;42.816;23.226;2023-04-03T02:31:48;11.23;;;5.80;;
55314;SDS011;41619;42.816;23.226;2023-04-03T02:34:13;16.73;;;6.35;;
55314;SDS011;41619;42.816;23.226;2023-04-03T02:36:39;14.15;;;6.88;;
55314;SDS011;41619;42.816;23.226;2023-04-03T02:39:04;20.90;;;7.47;;
55314;SDS011;41619;42.816;23.226;2023-04-03T02:41:30;25.75;;;10.57;;
55314;SDS011;41619;42.816;23.226;2023-04-03T02:44:00;21.58;;;10.57;;
55314;SDS011;41619;42.816;23.226;2023-04-03T02:46:26;31.52;;;13.52;;
55314;SDS011;41619;42.816;23.226;2023-04-03T02:48:52;28.50;;;10.70;;
55314;SDS011;41619;42.816;23.226;2023-04-03T02:51:17;17.42;;;8.05;;
55314;SDS011;41619;42.816;23.226;2023-04-03T02:53:43;15.02;;;7.90;;
55314;SDS011;41619;42.816;23.226;2023-04-03T02:56:08;12.05;;;7.13;;
55314;SDS011;41619;42.816;23.226;2023-04-03T02:58:34;14.95;;;7.28;;
55314;SDS011;41619;42.816;23.226;2023-04-03T03:00:59;17.33;;;7.45;;
55314;SDS011;41619;42.816;23.226;2023-04-03T03:03:25;13.70;;;7.25;;
55314;SDS011;41619;42.816;23.226;2023-04-03T03:05:50;15.60;;;7.20;;
55314;SDS011;41619;42.816;23.226;2023-04-03T03:08:26;13.40;;;7.10;;
55314;SDS011;41619;42.816;23.226;2023-04-03T03:10:51;13.18;;;7.95;;
55314;SDS011;41619;42.816;23.226;2023-04-03T03:13:16;16.33;;;7.88;;
55314;SDS011;41619;42.816;23.226;2023-04-03T03:15:42;17.60;;;6.88;;
55314;SDS011;41619;42.816;23.226;2023-04-03T03:18:07;19.83;;;8.20;;
55314;SDS011;41619;42.816;23.226;2023-04-03T03:20:33;12.38;;;7.88;;
55314;SDS011;41619;42.816;23.226;2023-04-03T03:22:58;12.82;;;7.03;;
55314;SDS011;41619;42.816;23.226;2023-04-03T03:25:23;13.70;;;8.00;;
55314;SDS011;41619;42.816;23.226;2023-04-03T03:27:49;10.02;;;6.18;;
55314;SDS011;41619;42.816;23.226;2023-04-03T03:30:14;14.43;;;7.32;;
55314;SDS011;41619;42.816;23.226;2023-04-03T03:32:40;17.40;;;7.85;;
55314;SDS011;41619;42.816;23.226;2023-04-03T03:35:05;15.30;;;7.57;;
55314;SDS011;41619;42.816;23.226;2023-04-03T03:37:31;18.83;;;7.43;;
55314;SDS011;41619;42.816;23.226;2023-04-03T03:39:56;19.80;;;10.13;;
55314;SDS011;41619;42.816;23.226;2023-04-03T03:42:22;25.05;;;8.63;;
55314;SDS011;41619;42.816;23.226;2023-04-03T03:44:47;13.02;;;7.38;;
55314;SDS011;41619;42.816;23.226;2023-04-03T03:47:12;13.55;;;7.25;;
55314;SDS011;41619;42.816;23.226;2023-04-03T03:49:38;14.70;;;7.30;;
55314;SDS011;41619;42.816;23.226;2023-04-03T03:52:03;17.65;;;7.03;;
55314;SDS011;41619;42.816;23.226;2023-04-03T03:54:29;14.65;;;7.63;;
55314;SDS011;41619;42.816;23.226;2023-04-03T03:56:54;12.68;;;7.38;;
55314;SDS011;41619;42.816;23.226;2023-04-03T03:59:19;14.20;;;7.07;;
55314;SDS011;41619;42.816;23.226;2023-04-03T04:01:45;15.43;;;7.40;;
55314;SDS011;41619;42.816;23.226;2023-04-03T04:04:10;15.98;;;7.32;;
55314;SDS011;41619;42.816;23.226;2023-04-03T04:06:36;17.75;;;8.80;;
55314;SDS011;41619;42.816;23.226;2023-04-03T04:09:01;24.25;;;12.32;;
55314;SDS011;41619;42.816;23.226;2023-04-03T04:11:27;27.85;;;9.70;;
55314;SDS011;41619;42.816;23.226;2023-04-03T04:13:52;17.17;;;9.05;;
55314;SDS011;41619;42.816;23.226;2023-04-03T04:16:18;18.67;;;8.88;;
55314;SDS011;41619;42.816;23.226;2023-04-03T04:18:43;17.80;;;8.73;;
55314;SDS011;41619;42.816;23.226;2023-04-03T04:21:08;25.20;;;13.63;;
55314;SDS011;41619;42.816;23.226;2023-04-03T04:23:34;23.38;;;10.65;;
55314;SDS011;41619;42.816;23.226;2023-04-03T04:25:59;39.83;;;10.93;;
55314;SDS011;41619;42.816;23.226;2023-04-03T04:28:25;19.52;;;8.75;;
55314;SDS011;41619;42.816;23.226;2023-04-03T04:30:50;18.90;;;8.50;;
55314;SDS011;41619;42.816;23.226;2023-04-03T04:33:15;23.58;;;10.57;;
55314;SDS011;41619;42.816;23.226;2023-04-03T04:35:41;23.17;;;10.40;;
55314;SDS011;41619;42.816;23.226;2023-04-03T04:38:08;24.52;;;9.55;;
55314;SDS011;41619;42.816;23.226;2023-04-03T04:40:33;24.05;;;11.40;;
55314;SDS011;41619;42.816;23.226;2023-04-03T04:42:59;35.15;;;14.57;;
55314;SDS011;41619;42.816;23.226;2023-04-03T04:45:25;46.50;;;16.65;;
55314;SDS011;41619;42.816;23.226;2023-04-03T04:47:50;46.35;;;17.02;;
55314;SDS011;41619;42.816;23.226;2023-04-03T04:50:17;40.92;;;17.63;;
55314;SDS011;41619;42.816;23.226;2023-04-03T04:52:43;29.48;;;14.48;;
55314;SDS011;41619;42.816;23.226;2023-04-03T04:55:08;32.33;;;12.50;;
55314;SDS011;41619;42.816;23.226;2023-04-03T04:57:33;30.85;;;11.77;;
55314;SDS011;41619;42.816;23.226;2023-04-03T05:00:00;26.73;;;15.68;;
55314;SDS011;41619;42.816;23.226;2023-04-03T05:02:25;38.75;;;18.00;;
55314;SDS011;41619;42.816;23.226;2023-04-03T05:04:50;36.88;;;20.30;;
55314;SDS011;41619;42.816;23.226;2023-04-03T05:07:17;49.67;;;25.40;;
55314;SDS011;41619;42.816;23.226;2023-04-03T05:09:42;47.58;;;21.80;;
55314;SDS011;41619;42.816;23.226;2023-04-03T05:12:07;38.33;;;20.38;;
55314;SDS011;41619;42.816;23.226;2023-04-03T05:14:33;35.00;;;18.45;;
55314;SDS011;41619;42.816;23.226;2023-04-03T05:16:58;52.00;;;22.35;;
55314;SDS011;41619;42.816;23.226;2023-04-03T05:19:24;43.38;;;18.55;;
55314;SDS011;41619;42.816;23.226;2023-04-03T05:21:49;33.42;;;15.10;;
55314;SDS011;41619;42.816;23.226;2023-04-03T05:24:14;33.60;;;15.02;;
55314;SDS011;41619;42.816;23.226;2023-04-03T05:26:41;43.42;;;17.80;;
55314;SDS011;41619;42.816;23.226;2023-04-03T05:29:06;35.15;;;16.17;;
55314;SDS011;41619;42.816;23.226;2023-04-03T05:31:32;31.42;;;14.98;;
55314;SDS011;41619;42.816;23.226;2023-04-03T05:33:57;36.42;;;14.32;;
55314;SDS011;41619;42.816;23.226;2023-04-03T05:36:23;26.88;;;11.93;;
55314;SDS011;41619;42.816;23.226;2023-04-03T05:38:48;22.83;;;11.93;;
55314;SDS011;41619;42.816;23.226;2023-04-03T05:41:14;28.52;;;12.90;;
55314;SDS011;41619;42.816;23.226;2023-04-03T05:43:40;104.78;;;49.58;;
55314;SDS011;41619;42.816;23.226;2023-04-03T05:46:12;110.93;;;48.55;;
55314;SDS011;41619;42.816;23.226;2023-04-03T05:48:40;47.75;;;22.65;;
55314;SDS011;41619;42.816;23.226;2023-04-03T05:51:07;32.88;;;15.75;;
55314;SDS011;41619;42.816;23.226;2023-04-03T05:53:38;25.98;;;15.10;;
55314;SDS011;41619;42.816;23.226;2023-04-03T05:56:03;27.38;;;14.05;;
55314;SDS011;41619;42.816;23.226;2023-04-03T05:58:29;34.20;;;14.88;;
55314;SDS011;41619;42.816;23.226;2023-04-03T06:00:54;29.98;;;16.00;;
55314;SDS011;41619;42.816;23.226;2023-04-03T06:03:20;32.40;;;16.02;;
55314;SDS011;41619;42.816;23.226;2023-04-03T06:05:45;32.63;;;15.35;;
55314;SDS011;41619;42.816;23.226;2023-04-03T06:08:11;29.08;;;16.45;;
55314;SDS011;41619;42.816;23.226;2023-04-03T06:10:37;29.92;;;14.40;;
55314;SDS011;41619;42.816;23.226;2023-04-03T06:13:03;23.77;;;12.40;;
55314;SDS011;41619;42.816;23.226;2023-04-03T06:15:28;27.98;;;12.13;;
55314;SDS011;41619;42.816;23.226;2023-04-03T06:17:54;18.45;;;11.60;;
55314;SDS011;41619;42.816;23.226;2023-04-03T06:20:20;37.80;;;15.43;;
55314;SDS011;41619;42.816;23.226;2023-04-03T06:22:45;17.65;;;9.10;;
55314;SDS011;41619;42.816;23.226;2023-04-03T06:25:11;21.08;;;10.98;;
55314;SDS011;41619;42.816;23.226;2023-04-03T06:27:37;51.80;;;18.65;;
55314;SDS011;41619;42.816;23.226;2023-04-03T06:30:03;342.33;;;86.75;;
55314;SDS011;41619;42.816;23.226;2023-04-03T06:32:30;231.40;;;73.40;;
55314;SDS011;41619;42.816;23.226;2023-04-03T06:34:55;57.45;;;21.88;;
55314;SDS011;41619;42.816;23.226;2023-04-03T06:37:22;40.88;;;18.40;;
55314;SDS011;41619;42.816;23.226;2023-04-03T06:39:51;40.35;;;17.75;;
55314;SDS011;41619;42.816;23.226;2023-04-03T06:42:17;26.23;;;12.82;;
55314;SDS011;41619;42.816;23.226;2023-04-03T06:44:42;25.33;;;13.25;;
55314;SDS011;41619;42.816;23.226;2023-04-03T06:47:09;35.97;;;14.82;;
55314;SDS011;41619;42.816;23.226;2023-04-03T06:49:37;116.65;;;39.40;;
55314;SDS011;41619;42.816;23.226;2023-04-03T06:52:03;56.10;;;23.77;;
55314;SDS011;41619;42.816;23.226;2023-04-03T06:54:30;21.40;;;12.25;;
55314;SDS011;41619;42.816;23.226;2023-04-03T06:56:56;24.08;;;12.27;;
55314;SDS011;41619;42.816;23.226;2023-04-03T06:59:21;36.25;;;14.40;;
55314;SDS011;41619;42.816;23.226;2023-04-03T07:01:46;36.78;;;15.30;;
55314;SDS011;41619;42.816;23.226;2023-04-03T07:04:12;24.25;;;11.40;;
55314;SDS011;41619;42.816;23.226;2023-04-03T07:06:38;17.60;;;11.35;;
55314;SDS011;41619;42.816;23.226;2023-04-03T07:09:03;18.52;;;11.13;;
55314;SDS011;41619;42.816;23.226;2023-04-03T07:11:28;19.35;;;11.88;;
55314;SDS011;41619;42.816;23.226;2023-04-03T07:13:54;24.05;;;11.52;;
55314;SDS011;41619;42.816;23.226;2023-04-03T07:16:20;34.05;;;12.52;;
55314;SDS011;41619;42.816;23.226;2023-04-03T07:18:46;26.02;;;12.40;;
55314;SDS011;41619;42.816;23.226;2023-04-03T07:21:11;21.90;;;12.70;;
55314;SDS011;41619;42.816;23.226;2023-04-03T07:23:37;26.73;;;14.38;;
55314;SDS011;41619;42.816;23.226;2023-04-03T07:26:03;32.95;;;18.55;;
55314;SDS011;41619;42.816;23.226;2023-04-03T07:28:28;20.42;;;11.15;;
55314;SDS011;41619;42.816;23.226;2023-04-03T07:31:04;18.80;;;8.07;;
55314;SDS011;41619;42.816;23.226;2023-04-03T07:33:38;13.98;;;8.73;;
55314;SDS011;41619;42.816;23.226;2023-04-03T07:36:04;12.57;;;7.90;;
55314;SDS011;41619;42.816;23.226;2023-04-03T07:38:32;11.65;;;7.20;;
55314;SDS011;41619;42.816;23.226;2023-04-03T07:40:58;15.18;;;8.48;;
55314;SDS011;41619;42.816;23.226;2023-04-03T07:43:23;11.05;;;6.68;;
55314;SDS011;41619;42.816;23.226;2023-04-03T07:45:50;13.88;;;8.25;;
55314;SDS011;41619;42.816;23.226;2023-04-03T07:48:16;24.75;;;10.18;;
55314;SDS011;41619;42.816;23.226;2023-04-03T07:50:43;20.58;;;11.43;;
55314;SDS011;41619;42.816;23.226;2023-04-03T07:53:09;28.98;;;12.77;;
55314;SDS011;41619;42.816;23.226;2023-04-03T07:55:34;25.13;;;11.75;;
55314;SDS011;41619;42.816;23.226;2023-04-03T07:58:05;20.17;;;11.15;;
55314;SDS011;41619;42.816;23.226;2023-04-03T08:00:31;18.13;;;10.10;;
55314;SDS011;41619;42.816;23.226;2023-04-03T08:02:56;21.23;;;9.63;;
55314;SDS011;41619;42.816;23.226;2023-04-03T08:05:22;15.13;;;9.00;;
55314;SDS011;41619;42.816;23.226;2023-04-03T08:07:47;17.02;;;9.48;;
55314;SDS011;41619;42.816;23.226;2023-04-03T08:10:14;19.23;;;13.45;;
55314;SDS011;41619;42.816;23.226;2023-04-03T08:12:39;15.73;;;9.52;;
55314;SDS011;41619;42.816;23.226;2023-04-03T08:15:05;16.85;;;8.68;;
55314;SDS011;41619;42.816;23.226;2023-04-03T08:17:32;16.52;;;9.73;;
55314;SDS011;41619;42.816;23.226;2023-04-03T08:19:57;24.40;;;14.52;;
55314;SDS011;41619;42.816;23.226;2023-04-03T08:22:23;15.35;;;8.25;;
55314;SDS011;41619;42.816;23.226;2023-04-03T08:24:48;22.42;;;8.77;;
55314;SDS011;41619;42.816;23.226;2023-04-03T08:27:14;18.33;;;7.60;;
55314;SDS011;41619;42.816;23.226;2023-04-03T08:29:40;8.40;;;4.47;;
55314;SDS011;41619;42.816;23.226;2023-04-03T08:32:05;10.23;;;6.05;;
55314;SDS011;41619;42.816;23.226;2023-04-03T08:34:31;6.45;;;5.20;;
55314;SDS011;41619;42.816;23.226;2023-04-03T08:36:59;6.68;;;5.00;;
55314;SDS011;41619;42.816;23.226;2023-04-03T08:39:25;10.18;;;6.50;;
55314;SDS011;41619;42.816;23.226;2023-04-03T08:41:51;15.57;;;6.93;;
55314;SDS011;41619;42.816;23.226;2023-04-03T08:49:48;19.83;;;9.40;;
55314;SDS011;41619;42.816;23.226;2023-04-03T08:52:36;16.50;;;9.75;;
55314;SDS011;41619;42.816;23.226;2023-04-03T08:55:52;11.35;;;6.85;;
55314;SDS011;41619;42.816;23.226;2023-04-03T08:58:12;10.70;;;5.95;;
55314;SDS011;41619;42.816;23.226;2023-04-03T09:03:23;11.13;;;5.88;;
55314;SDS011;41619;42.816;23.226;2023-04-03T09:10:53;8.50;;;5.30;;
55314;SDS011;41619;42.816;23.226;2023-04-03T09:16:34;8.45;;;5.13;;
55314;SDS011;41619;42.816;23.226;2023-04-03T09:21:45;16.52;;;6.88;;
55314;SDS011;41619;42.816;23.226;2023-04-03T09:24:12;11.40;;;5.18;;
55314;SDS011;41619;42.816;23.226;2023-04-03T09:26:48;12.45;;;5.82;;
55314;SDS011;41619;42.816;23.226;2023-04-03T09:29:23;10.52;;;5.90;;
55314;SDS011;41619;42.816;23.226;2023-04-03T09:31:56;19.02;;;6.72;;
55314;SDS011;41619;42.816;23.226;2023-04-03T09:34:25;8.75;;;4.93;;
55314;SDS011;41619;42.816;23.226;2023-04-03T09:37:00;8.57;;;5.32;;
55314;SDS011;41619;42.816;23.226;2023-04-03T09:39:31;8.82;;;5.43;;
55314;SDS011;41619;42.816;23.226;2023-04-03T09:42:18;9.93;;;5.45;;
55314;SDS011;41619;42.816;23.226;2023-04-03T09:44:52;8.35;;;5.13;;
55314;SDS011;41619;42.816;23.226;2023-04-03T09:47:30;12.35;;;6.28;;
55314;SDS011;41619;42.816;23.226;2023-04-03T09:52:44;14.82;;;6.60;;
55314;SDS011;41619;42.816;23.226;2023-04-03T09:57:40;12.48;;;6.28;;
55314;SDS011;41619;42.816;23.226;2023-04-03T10:00:06;12.88;;;6.47;;
55314;SDS011;41619;42.816;23.226;2023-04-03T10:02:46;13.00;;;7.00;;
55314;SDS011;41619;42.816;23.226;2023-04-03T10:08:42;12.00;;;6.63;;
55314;SDS011;41619;42.816;23.226;2023-04-03T10:10:47;14.35;;;7.00;;
55314;SDS011;41619;42.816;23.226;2023-04-03T10:13:17;12.50;;;7.90;;
55314;SDS011;41619;42.816;23.226;2023-04-03T10:15:47;15.55;;;8.48;;
55314;SDS011;41619;42.816;23.226;2023-04-03T10:21:13;8.38;;;6.00;;
55314;SDS011;41619;42.816;23.226;2023-04-03T10:23:50;11.38;;;5.70;;
55314;SDS011;41619;42.816;23.226;2023-04-03T10:29:11;10.10;;;6.22;;
55314;SDS011;41619;42.816;23.226;2023-04-03T10:32:21;10.95;;;6.40;;
55314;SDS011;41619;42.816;23.226;2023-04-03T10:34:48;11.07;;;6.03;;
55314;SDS011;41619;42.816;23.226;2023-04-03T10:42:55;10.95;;;7.22;;
55314;SDS011;41619;42.816;23.226;2023-04-03T10:59:21;10.95;;;5.72;;
55314;SDS011;41619;42.816;23.226;2023-04-03T11:02:04;16.48;;;7.50;;
55314;SDS011;41619;42.816;23.226;2023-04-03T11:04:37;11.35;;;6.82;;
55314;SDS011;41619;42.816;23.226;2023-04-03T11:07:22;9.63;;;5.40;;
55314;SDS011;41619;42.816;23.226;2023-04-03T11:09:55;14.05;;;5.57;;
55314;SDS011;41619;42.816;23.226;2023-04-03T11:12:32;12.63;;;6.10;;
55314;SDS011;41619;42.816;23.226;2023-04-03T11:15:11;20.02;;;5.57;;
55314;SDS011;41619;42.816;23.226;2023-04-03T11:17:50;13.73;;;5.53;;
55314;SDS011;41619;42.816;23.226;2023-04-03T11:20:20;10.18;;;4.45;;
55314;SDS011;41619;42.816;23.226;2023-04-03T11:23:00;8.98;;;4.78;;
55314;SDS011;41619;42.816;23.226;2023-04-03T11:25:45;14.60;;;5.07;;
55314;SDS011;41619;42.816;23.226;2023-04-03T11:28:14;11.48;;;5.70;;
55314;SDS011;41619;42.816;23.226;2023-04-03T11:36:50;8.65;;;4.15;;
55314;SDS011;41619;42.816;23.226;2023-04-03T11:39:24;6.15;;;3.33;;
55314;SDS011;41619;42.816;23.226;2023-04-03T11:41:53;9.23;;;3.55;;
55314;SDS011;41619;42.816;23.226;2023-04-03T11:44:28;8.45;;;4.07;;
55314;SDS011;41619;42.816;23.226;2023-04-03T11:47:07;11.95;;;4.70;;
55314;SDS011;41619;42.816;23.226;2023-04-03T11:49:55;13.45;;;5.72;;
55314;SDS011;41619;42.816;23.226;2023-04-03T12:16:25;6.25;;;4.40;;
55314;SDS011;41619;42.816;23.226;2023-04-03T12:26:43;16.25;;;12.38;;
55314;SDS011;41619;42.816;23.226;2023-04-03T12:37:41;9.07;;;7.75;;
55314;SDS011;41619;42.816;23.226;2023-04-03T12:40:16;7.00;;;5.47;;
55314;SDS011;41619;42.816;23.226;2023-04-03T12:45:20;8.02;;;4.20;;
55314;SDS011;41619;42.816;23.226;2023-04-03T12:47:50;7.97;;;4.57;;
55314;SDS011;41619;42.816;23.226;2023-04-03T12:53:15;8.40;;;5.00;;
55314;SDS011;41619;42.816;23.226;2023-04-03T12:55:44;14.77;;;8.65;;
55314;SDS011;41619;42.816;23.226;2023-04-03T12:58:13;17.45;;;10.93;;
55314;SDS011;41619;42.816;23.226;2023-04-03T13:00:46;11.15;;;7.50;;
55314;SDS011;41619;42.816;23.226;2023-04-03T13:03:24;12.73;;;9.23;;
55314;SDS011;41619;42.816;23.226;2023-04-03T13:05:59;13.32;;;10.13;;
55314;SDS011;41619;42.816;23.226;2023-04-03T13:08:28;14.38;;;8.90;;
55314;SDS011;41619;42.816;23.226;2023-04-03T13:11:02;16.48;;;8.57;;
55314;SDS011;41619;42.816;23.226;2023-04-03T13:13:35;14.57;;;8.40;;
55314;SDS011;41619;42.816;23.226;2023-04-03T13:16:09;14.80;;;8.82;;
55314;SDS011;41619;42.816;23.226;2023-04-03T13:18:36;14.65;;;8.73;;
55314;SDS011;41619;42.816;23.226;2023-04-03T13:23:28;36.58;;;22.25;;
55314;SDS011;41619;42.816;23.226;2023-04-03T13:25:56;17.48;;;12.23;;
55314;SDS011;41619;42.816;23.226;2023-04-03T13:28:25;19.70;;;12.85;;
55314;SDS011;41619;42.816;23.226;2023-04-03T13:33:28;10.15;;;6.15;;
55314;SDS011;41619;42.816;23.226;2023-04-03T13:39:17;8.15;;;3.65;;
55314;SDS011;41619;42.816;23.226;2023-04-03T13:41:54;7.15;;;4.15;;
55314;SDS011;41619;42.816;23.226;2023-04-03T13:44:29;6.47;;;4.57;;
55314;SDS011;41619;42.816;23.226;2023-04-03T13:51:51;10.77;;;5.43;;
55314;SDS011;41619;42.816;23.226;2023-04-03T13:54:19;6.43;;;4.30;;
55314;SDS011;41619;42.816;23.226;2023-04-03T13:57:02;6.60;;;3.50;;
55314;SDS011;41619;42.816;23.226;2023-04-03T13:59:32;5.60;;;4.45;;
55314;SDS011;41619;42.816;23.226;2023-04-03T14:04:30;5.72;;;4.57;;
55314;SDS011;41619;42.816;23.226;2023-04-03T14:06:55;4.90;;;4.07;;
55314;SDS011;41619;42.816;23.226;2023-04-03T14:09:22;4.47;;;4.03;;
55314;SDS011;41619;42.816;23.226;2023-04-03T14:11:50;5.63;;;4.95;;
55314;SDS011;41619;42.816;23.226;2023-04-03T14:14:29;6.05;;;4.55;;
55314;SDS011;41619;42.816;23.226;2023-04-03T14:16:58;5.35;;;3.50;;
55314;SDS011;41619;42.816;23.226;2023-04-03T14:19:27;6.53;;;4.63;;
55314;SDS011;41619;42.816;23.226;2023-04-03T14:22:18;12.45;;;5.28;;
55314;SDS011;41619;42.816;23.226;2023-04-03T14:24:47;6.82;;;5.03;;
55314;SDS011;41619;42.816;23.226;2023-04-03T14:27:34;9.75;;;6.00;;
55314;SDS011;41619;42.816;23.226;2023-04-03T14:30:03;9.27;;;5.60;;
55314;SDS011;41619;42.816;23.226;2023-04-03T14:32:30;9.63;;;5.72;;
55314;SDS011;41619;42.816;23.226;2023-04-03T14:34:56;10.98;;;6.82;;
55314;SDS011;41619;42.816;23.226;2023-04-03T14:37:24;18.98;;;11.05;;
55314;SDS011;41619;42.816;23.226;2023-04-03T14:39:53;11.82;;;7.72;;
55314;SDS011;41619;42.816;23.226;2023-04-03T14:42:23;11.57;;;6.90;;
55314;SDS011;41619;42.816;23.226;2023-04-03T14:44:50;17.08;;;7.75;;
55314;SDS011;41619;42.816;23.226;2023-04-03T14:47:19;13.70;;;7.60;;
55314;SDS011;41619;42.816;23.226;2023-04-03T14:49:47;19.10;;;10.55;;
55314;SDS011;41619;42.816;23.226;2023-04-03T14:52:23;19.38;;;11.25;;
55314;SDS011;41619;42.816;23.226;2023-04-03T14:54:56;20.77;;;14.75;;
55314;SDS011;41619;42.816;23.226;2023-04-03T14:57:23;22.20;;;15.07;;
55314;SDS011;41619;42.816;23.226;2023-04-03T14:59:51;17.55;;;10.93;;
55314;SDS011;41619;42.816;23.226;2023-04-03T15:02:36;16.25;;;10.32;;
55314;SDS011;41619;42.816;23.226;2023-04-03T15:05:06;15.43;;;10.77;;
55314;SDS011;41619;42.816;23.226;2023-04-03T15:07:36;19.83;;;12.10;;
55314;SDS011;41619;42.816;23.226;2023-04-03T15:12:41;18.60;;;12.43;;
55314;SDS011;41619;42.816;23.226;2023-04-03T15:15:07;17.40;;;11.18;;
55314;SDS011;41619;42.816;23.226;2023-04-03T15:17:33;16.90;;;12.50;;
55314;SDS011;41619;42.816;23.226;2023-04-03T15:20:00;27.23;;;14.35;;
55314;SDS011;41619;42.816;23.226;2023-04-03T15:22:26;22.83;;;14.25;;
55314;SDS011;41619;42.816;23.226;2023-04-03T15:24:51;19.58;;;13.15;;
55314;SDS011;41619;42.816;23.226;2023-04-03T15:27:17;19.35;;;14.68;;
55314;SDS011;41619;42.816;23.226;2023-04-03T15:29:42;18.05;;;14.48;;
55314;SDS011;41619;42.816;23.226;2023-04-03T15:32:09;21.23;;;16.00;;
55314;SDS011;41619;42.816;23.226;2023-04-03T15:34:35;21.40;;;14.60;;
55314;SDS011;41619;42.816;23.226;2023-04-03T15:37:00;22.48;;;14.90;;
55314;SDS011;41619;42.816;23.226;2023-04-03T15:39:26;17.83;;;13.48;;
55314;SDS011;41619;42.816;23.226;2023-04-03T15:41:51;26.20;;;14.98;;
55314;SDS011;41619;42.816;23.226;2023-04-03T15:44:17;23.88;;;14.85;;
55314;SDS011;41619;42.816;23.226;2023-04-03T15:46:44;22.08;;;13.70;;
55314;SDS011;41619;42.816;23.226;2023-04-03T15:49:10;28.63;;;15.73;;
55314;SDS011;41619;42.816;23.226;2023-04-03T15:51:37;30.80;;;19.23;;
55314;SDS011;41619;42.816;23.226;2023-04-03T15:54:02;24.50;;;15.88;;
55314;SDS011;41619;42.816;23.226;2023-04-03T15:56:28;25.77;;;16.40;;
55314;SDS011;41619;42.816;23.226;2023-04-03T15:58:53;28.77;;;18.45;;
55314;SDS011;41619;42.816;23.226;2023-04-03T16:01:19;31.65;;;19.58;;
55314;SDS011;41619;42.816;23.226;2023-04-03T16:03:44;23.67;;;14.93;;
55314;SDS011;41619;42.816;23.226;2023-04-03T16:06:19;20.00;;;13.68;;
55314;SDS011;41619;42.816;23.226;2023-04-03T16:08:46;22.00;;;15.35;;
55314;SDS011;41619;42.816;23.226;2023-04-03T16:11:13;27.00;;;16.40;;
55314;SDS011;41619;42.816;23.226;2023-04-03T16:13:38;30.67;;;17.02;;
55314;SDS011;41619;42.816;23.226;2023-04-03T16:16:04;22.45;;;14.48;;
55314;SDS011;41619;42.816;23.226;2023-04-03T16:18:30;15.18;;;12.18;;
55314;SDS011;41619;42.816;23.226;2023-04-03T16:20:55;21.45;;;13.32;;
55314;SDS011;41619;42.816;23.226;2023-04-03T16:23:22;15.90;;;12.60;;
55314;SDS011;41619;42.816;23.226;2023-04-03T16:25:48;20.88;;;12.77;;
55314;SDS011;41619;42.816;23.226;2023-04-03T16:28:15;19.73;;;14.00;;
55314;SDS011;41619;42.816;23.226;2023-04-03T16:30:42;22.50;;;14.55;;
55314;SDS011;41619;42.816;23.226;2023-04-03T16:33:09;19.20;;;12.48;;
55314;SDS011;41619;42.816;23.226;2023-04-03T16:35:35;26.17;;;15.05;;
55314;SDS011;41619;42.816;23.226;2023-04-03T16:38:01;22.95;;;15.52;;
55314;SDS011;41619;42.816;23.226;2023-04-03T16:40:26;21.67;;;15.48;;